createdAt,value
2023-01-02T00:01:32.245Z,98955.00
2023-01-02T00:04:02.343Z,98949.00
2023-01-02T00:06:36.257Z,98952.00
2023-01-02T00:09:06.620Z,98922.00
2023-01-02T00:11:36.759Z,98952.00
2023-01-02T00:14:06.919Z,98953.00
2023-01-02T00:16:39.533Z,98933.00
2023-01-02T00:19:09.600Z,98945.00
2023-01-02T00:21:39.664Z,98947.00
2023-01-02T00:24:10.644Z,98952.00
2023-01-02T00:26:40.715Z,98947.00
2023-01-02T00:29:10.661Z,98941.00
2023-01-02T00:31:43.255Z,98925.00
2023-01-02T00:34:13.355Z,98926.00
2023-01-02T00:36:43.305Z,98909.00
2023-01-02T00:39:14.165Z,98913.00
2023-01-02T00:41:44.253Z,98916.00
2023-01-02T00:44:14.263Z,98921.00
2023-01-02T00:46:46.885Z,98921.00
2023-01-02T00:49:16.975Z,98926.00
2023-01-02T00:51:46.960Z,98929.00
2023-01-02T00:54:17.622Z,98913.00
2023-01-02T00:56:47.580Z,98916.00
2023-01-02T00:59:17.543Z,98908.00
2023-01-02T01:01:50.227Z,98909.00
2023-01-02T01:04:20.452Z,98907.00
2023-01-02T01:06:50.432Z,98893.00
2023-01-02T01:09:20.978Z,98906.00
2023-01-02T01:11:50.994Z,98915.00
2023-01-02T01:14:21.034Z,98913.00
2023-01-02T01:16:53.602Z,98900.00
2023-01-02T01:19:23.814Z,98902.00
2023-01-02T01:21:53.803Z,98893.00
2023-01-02T01:24:23.798Z,98901.00
2023-01-02T01:26:53.825Z,98891.00
2023-01-02T01:29:24.130Z,98898.00
2023-01-02T01:31:56.791Z,98898.00
2023-01-02T01:34:26.795Z,98883.00
2023-01-02T01:36:56.861Z,98896.00
2023-01-02T01:39:26.840Z,98882.00
2023-01-02T01:41:56.831Z,98884.00
2023-01-02T01:44:45.838Z,98874.00
2023-01-02T01:47:24.737Z,98856.00
2023-01-02T01:50:04.721Z,98860.00
2023-01-02T01:52:37.148Z,98857.00
2023-01-02T01:55:10.837Z,98850.00
2023-01-02T01:57:43.852Z,98860.00
2023-01-02T02:00:15.319Z,98847.00
2023-01-02T02:02:50.653Z,98854.00
2023-01-02T02:05:23.566Z,98852.00
2023-01-02T02:08:00.050Z,98849.00
2023-01-02T02:10:30.038Z,98844.00
2023-01-02T02:12:59.975Z,98838.00
2023-01-02T02:15:34.250Z,98819.00
2023-01-02T02:18:15.334Z,98817.00
2023-01-02T02:20:51.463Z,98815.00
2023-01-02T02:23:35.468Z,98809.00
2023-01-02T02:26:15.927Z,98798.00
2023-01-02T02:29:30.705Z,98810.00
2023-01-02T02:32:11.006Z,98805.00
2023-01-02T02:34:48.596Z,98808.00
2023-01-02T02:37:26.924Z,98795.00
2023-01-02T02:40:04.936Z,98795.00
2023-01-02T02:42:47.614Z,98781.00
2023-01-02T02:45:22.890Z,98782.00
2023-01-02T02:47:59.345Z,98764.00
2023-01-02T02:50:35.191Z,98736.00
2023-01-02T02:53:09.256Z,98749.00
2023-01-02T02:55:43.277Z,98736.00
2023-01-02T02:58:13.452Z,98726.00
2023-01-02T03:00:43.652Z,98726.00
2023-01-02T03:03:24.304Z,98723.00
2023-01-02T03:06:12.342Z,98727.00
2023-01-02T03:08:45.595Z,98697.00
2023-01-02T03:11:16.096Z,98704.00
2023-01-02T03:13:52.343Z,98682.00
2023-01-02T03:16:30.541Z,98688.00
2023-01-02T03:19:07.355Z,98692.00
2023-01-02T03:21:39.193Z,98691.00
2023-01-02T03:24:11.715Z,98692.00
2023-01-02T03:26:43.936Z,98702.00
2023-01-02T03:29:20.713Z,98724.00
2023-01-02T03:31:54.032Z,98718.00
2023-01-02T03:34:30.042Z,98733.00
2023-01-02T03:37:05.057Z,98740.00
2023-01-02T03:39:38.267Z,98747.00
2023-01-02T03:42:11.008Z,98751.00
2023-01-02T03:44:43.603Z,98754.00
2023-01-02T03:47:23.903Z,98758.00
2023-01-02T03:49:57.895Z,98760.00
2023-01-02T03:52:27.866Z,98765.00
2023-01-02T03:54:58.424Z,98761.00
2023-01-02T03:57:34.493Z,98772.00
2023-01-02T04:00:07.618Z,98765.00
2023-01-02T04:02:49.273Z,98758.00
2023-01-02T04:05:26.531Z,98759.00
2023-01-02T04:08:00.892Z,98767.00
2023-01-02T04:10:31.883Z,98755.00
2023-01-02T04:13:04.876Z,98761.00
2023-01-02T04:15:36.612Z,98759.00
2023-01-02T04:18:10.177Z,98772.00
2023-01-02T04:20:44.795Z,98768.00
2023-01-02T04:23:17.464Z,98769.00
2023-01-02T04:25:52.951Z,98764.00
2023-01-02T04:28:25.639Z,98763.00
2023-01-02T04:30:58.873Z,98764.00
2023-01-02T04:33:29.680Z,98771.00
2023-01-02T04:36:10.801Z,98770.00
2023-01-02T04:38:41.026Z,98767.00
2023-01-02T04:41:11.182Z,98766.00
2023-01-02T04:43:41.142Z,98774.00
2023-01-02T04:46:11.173Z,98768.00
2023-01-02T04:48:41.246Z,98769.00
2023-01-02T04:51:13.807Z,98761.00
2023-01-02T04:53:43.799Z,98778.00
2023-01-02T04:56:13.812Z,98788.00
2023-01-02T04:58:43.779Z,98781.00
2023-01-02T05:01:14.948Z,98787.00
2023-01-02T05:03:46.473Z,98776.00
2023-01-02T05:06:19.312Z,98780.00
2023-01-02T05:08:49.364Z,98785.00
2023-01-02T05:11:20.887Z,98773.00
2023-01-02T05:13:50.896Z,98762.00
2023-01-02T05:16:20.937Z,98775.00
2023-01-02T05:18:51.031Z,98778.00
2023-01-02T05:21:36.093Z,98781.00
2023-01-02T05:24:07.395Z,98777.00
2023-01-02T05:26:37.460Z,98777.00
2023-01-02T05:29:07.477Z,98770.00
2023-01-02T05:31:37.535Z,98761.00
2023-01-02T05:34:07.651Z,98759.00
2023-01-02T05:36:40.342Z,98750.00
2023-01-02T05:39:12.269Z,98751.00
2023-01-02T05:41:42.565Z,98757.00
2023-01-02T05:44:13.424Z,98757.00
2023-01-02T05:46:43.546Z,98754.00
2023-01-02T05:49:14.211Z,98735.00
2023-01-02T05:51:46.867Z,98723.00
2023-01-02T05:54:16.842Z,98735.00
2023-01-02T05:56:46.913Z,98740.00
2023-01-02T05:59:17.064Z,98731.00
2023-01-02T06:01:49.132Z,98729.00
2023-01-02T06:04:19.987Z,98726.00
2023-01-02T06:10:03.630Z,98716.00
2023-01-02T06:12:33.600Z,98708.00
2023-01-02T06:15:03.686Z,98718.00
2023-01-02T06:17:33.624Z,98708.00
2023-01-02T06:20:03.667Z,98700.00
2023-01-02T06:22:33.835Z,98701.00
2023-01-02T06:25:06.825Z,98688.00
2023-01-02T06:27:36.821Z,98689.00
2023-01-02T06:30:07.750Z,98667.00
2023-01-02T06:32:37.762Z,98642.00
2023-01-02T06:35:08.847Z,98642.00
2023-01-02T06:37:38.824Z,98617.00
2023-01-02T06:40:12.232Z,98608.00
2023-01-02T06:42:42.344Z,98583.00
2023-01-02T06:45:13.363Z,98595.00
2023-01-02T06:47:43.338Z,98583.00
2023-01-02T06:50:13.749Z,98569.00
2023-01-02T06:52:43.754Z,98559.00
2023-01-02T06:55:16.522Z,98564.00
2023-01-02T06:57:46.897Z,98580.00
2023-01-02T07:00:18.513Z,98563.00
2023-01-02T07:02:48.584Z,98570.00
2023-01-02T07:05:24.431Z,98560.00
2023-01-02T07:07:54.789Z,98553.00
2023-01-02T07:10:27.435Z,98551.00
2023-01-02T07:12:57.420Z,98552.00
2023-01-02T07:15:27.572Z,98548.00
2023-01-02T07:17:57.577Z,98559.00
2023-01-02T07:20:27.577Z,98558.00
2023-01-02T07:22:57.829Z,98563.00
2023-01-02T07:25:30.449Z,98537.00
2023-01-02T07:28:02.406Z,98526.00
2023-01-02T07:30:32.391Z,98549.00
2023-01-02T07:33:02.367Z,98561.00
2023-01-02T07:35:32.358Z,98543.00
2023-01-02T07:38:02.314Z,98529.00
2023-01-02T07:40:35.647Z,98531.00
2023-01-02T07:43:05.707Z,98509.00
2023-01-02T07:45:37.032Z,98527.00
2023-01-02T07:48:08.027Z,98540.00
2023-01-02T07:50:38.100Z,98523.00
2023-01-02T07:53:08.133Z,98558.00
2023-01-02T07:55:41.113Z,98530.00
2023-01-02T07:58:11.164Z,98537.00
2023-01-02T08:00:41.290Z,98539.00
2023-01-02T08:03:11.283Z,98541.00
2023-01-02T08:05:41.375Z,98520.00
2023-01-02T08:08:11.373Z,98536.00
2023-01-02T08:10:43.956Z,98558.00
2023-01-02T08:13:13.968Z,98566.00
2023-01-02T08:15:43.981Z,98570.00
2023-01-02T08:18:14.069Z,98575.00
2023-01-02T08:20:44.065Z,98572.00
2023-01-02T08:23:14.017Z,98600.00
2023-01-02T08:25:46.605Z,98597.00
2023-01-02T08:28:16.630Z,98609.00
2023-01-02T08:30:49.615Z,98607.00
2023-01-02T08:33:19.668Z,98598.00
2023-01-02T08:35:49.689Z,98596.00
2023-01-02T08:38:19.897Z,98604.00
2023-01-02T08:40:52.619Z,98630.00
2023-01-02T08:43:22.571Z,98624.00
2023-01-02T08:45:52.521Z,98642.00
2023-01-02T08:48:22.499Z,98649.00
2023-01-02T08:50:52.950Z,98671.00
2023-01-02T08:53:22.994Z,98664.00
2023-01-02T08:55:55.731Z,98679.00
2023-01-02T08:58:25.764Z,98682.00
2023-01-02T09:00:55.801Z,98693.00
2023-01-02T09:03:25.887Z,98713.00
2023-01-02T09:05:58.054Z,98713.00
2023-01-02T09:08:28.117Z,98728.00
2023-01-02T09:11:00.742Z,98707.00
2023-01-02T09:13:30.768Z,98722.00
2023-01-02T09:16:00.798Z,98709.00
2023-01-02T09:18:30.793Z,98714.00
2023-01-02T09:21:00.828Z,98739.00
2023-01-02T09:23:30.897Z,98728.00
2023-01-02T09:26:04.875Z,98740.00
2023-01-02T09:28:36.026Z,98724.00
2023-01-02T09:31:12.050Z,98719.00
2023-01-02T09:33:43.037Z,98715.00
2023-01-02T09:36:14.670Z,98727.00
2023-01-02T09:38:45.368Z,98710.00
2023-01-02T09:41:30.108Z,98703.00
2023-01-02T09:44:02.919Z,98696.00
2023-01-02T09:46:36.931Z,98693.00
2023-01-02T09:49:07.343Z,98693.00
2023-01-02T09:51:38.113Z,98698.00
2023-01-02T09:54:10.202Z,98695.00
2023-01-02T09:56:44.794Z,98691.00
2023-01-02T09:59:17.835Z,98695.00
2023-01-02T10:01:56.106Z,98674.00
2023-01-02T10:04:36.469Z,98666.00
2023-01-02T10:07:12.422Z,98656.00
2023-01-02T10:09:49.227Z,98670.00
2023-01-02T10:12:26.136Z,98658.00
2023-01-02T10:14:59.912Z,98653.00
2023-01-02T10:17:32.993Z,98639.00
2023-01-02T10:20:06.413Z,98627.00
2023-01-02T10:22:39.437Z,98640.00
2023-01-02T10:25:14.057Z,98644.00
2023-01-02T10:27:50.795Z,98632.00
2023-01-02T10:30:23.063Z,98631.00
2023-01-02T10:33:02.577Z,98639.00
2023-01-02T10:35:42.355Z,98642.00
2023-01-02T10:38:13.945Z,98635.00
2023-01-02T10:40:45.562Z,98631.00
2023-01-02T10:43:18.803Z,98635.00
2023-01-02T10:45:48.804Z,98646.00
2023-01-02T10:48:18.779Z,98631.00
2023-01-02T10:50:51.830Z,98622.00
2023-01-02T10:53:24.602Z,98617.00
2023-01-02T10:55:54.589Z,98618.00
2023-01-02T10:58:29.797Z,98610.00
2023-01-02T11:01:08.437Z,98594.00
2023-01-02T11:03:39.762Z,98607.00
2023-01-02T11:06:35.070Z,98605.00
2023-01-02T11:09:20.291Z,98596.00
2023-01-02T11:11:54.674Z,98590.00
2023-01-02T11:14:31.793Z,98605.00
2023-01-02T11:17:07.524Z,98603.00
2023-01-02T11:19:43.572Z,98593.00
2023-01-02T11:22:14.905Z,98593.00
2023-01-02T11:25:00.703Z,98580.00
2023-01-02T11:27:34.993Z,98607.00
2023-01-02T11:30:10.265Z,98604.00
2023-01-02T11:32:41.898Z,98606.00
2023-01-02T11:35:35.317Z,98607.00
2023-01-02T11:38:06.111Z,98616.00
2023-01-02T11:40:36.923Z,98616.00
2023-01-02T11:43:21.832Z,98618.00
2023-01-02T11:45:55.619Z,98623.00
2023-01-02T11:48:26.804Z,98619.00
2023-01-02T11:50:57.157Z,98621.00
2023-01-02T11:53:32.283Z,98611.00
2023-01-02T11:56:06.077Z,98607.00
2023-01-02T11:58:40.534Z,98619.00
2023-01-02T12:01:20.464Z,98619.00
2023-01-02T12:03:50.607Z,98626.00
2023-01-02T12:06:23.175Z,98635.00
2023-01-02T12:09:04.931Z,98618.00
2023-01-02T12:11:45.257Z,98623.00
2023-01-02T12:14:18.131Z,98626.00
2023-01-02T12:16:55.094Z,98625.00
2023-01-02T12:19:42.548Z,98626.00
2023-01-02T12:22:23.586Z,98629.00
2023-01-02T12:25:26.771Z,98650.00
2023-01-02T12:28:03.098Z,98662.00
2023-01-02T12:30:35.931Z,98675.00
2023-01-02T12:33:24.697Z,98674.00
2023-01-02T12:36:11.213Z,98669.00
2023-01-02T12:38:53.265Z,98672.00
2023-01-02T12:41:29.586Z,98677.00
2023-01-02T12:44:22.012Z,98680.00
2023-01-02T12:47:16.735Z,98693.00
2023-01-02T12:50:24.540Z,98703.00
2023-01-02T12:53:03.572Z,98696.00
2023-01-02T12:55:48.668Z,98714.00
2023-01-02T12:58:32.393Z,98723.00
2023-01-02T13:01:11.991Z,98717.00
2023-01-02T13:03:48.119Z,98713.00
2023-01-02T13:06:43.527Z,98709.00
2023-01-02T13:09:22.417Z,98707.00
2023-01-02T13:11:58.391Z,98690.00
2023-01-02T13:14:34.575Z,98684.00
2023-01-02T13:17:26.155Z,98688.00
2023-01-02T13:19:59.807Z,98692.00
2023-01-02T13:22:40.604Z,98692.00
2023-01-02T13:25:17.283Z,98689.00
2023-01-02T13:27:48.555Z,98681.00
2023-01-02T13:30:40.256Z,98693.00
2023-01-02T13:33:21.615Z,98688.00
2023-01-02T13:35:52.227Z,98696.00
2023-01-02T13:38:26.922Z,98698.00
2023-01-02T13:40:59.845Z,98691.00
2023-01-02T13:43:32.104Z,98696.00
2023-01-02T13:46:02.633Z,98703.00
2023-01-02T13:48:36.049Z,98697.00
2023-01-02T13:51:07.518Z,98698.00
2023-01-02T13:53:44.992Z,98711.00
2023-01-02T13:56:16.405Z,98698.00
2023-01-02T13:58:51.054Z,98693.00
2023-01-02T14:01:37.014Z,98706.00
2023-01-02T14:04:35.814Z,98720.00
2023-01-02T14:07:41.221Z,98729.00
2023-01-02T14:10:24.168Z,98720.00
2023-01-02T14:12:56.582Z,98724.00
2023-01-02T14:15:29.055Z,98726.00
2023-01-02T14:18:07.060Z,98727.00
2023-01-02T14:20:39.107Z,98736.00
2023-01-02T14:23:11.337Z,98731.00
2023-01-02T14:25:51.638Z,98736.00
2023-01-02T14:28:26.585Z,98720.00
2023-01-02T14:30:57.261Z,98716.00
2023-01-02T14:33:33.669Z,98724.00
2023-01-02T14:36:09.302Z,98729.00
2023-01-02T14:38:42.106Z,98736.00
2023-01-02T14:42:05.805Z,98735.00
2023-01-02T14:44:36.841Z,98735.00
2023-01-02T14:47:07.675Z,98743.00
2023-01-02T14:49:37.893Z,98749.00
2023-01-02T14:52:10.671Z,98739.00
2023-01-02T14:54:44.856Z,98754.00
2023-01-02T14:57:27.789Z,98752.00
2023-01-02T14:59:59.221Z,98760.00
2023-01-02T15:02:33.846Z,98757.00
2023-01-02T15:05:09.056Z,98755.00
2023-01-02T15:07:41.182Z,98751.00
2023-01-02T15:10:16.043Z,98758.00
2023-01-02T15:13:02.780Z,98766.00
2023-01-02T15:15:34.607Z,98778.00
2023-01-02T15:18:07.507Z,98781.00
2023-01-02T15:20:37.557Z,98785.00
2023-01-02T15:23:07.758Z,98782.00
2023-01-02T15:25:42.119Z,98777.00
2023-01-02T15:28:28.495Z,98787.00
2023-01-02T15:31:02.984Z,98774.00
2023-01-02T15:33:34.264Z,98785.00
2023-01-02T15:36:06.254Z,98788.00
2023-01-02T15:38:36.348Z,98785.00
2023-01-02T15:41:07.059Z,98780.00
2023-01-02T15:43:54.921Z,98799.00
2023-01-02T15:46:25.016Z,98795.00
2023-01-02T15:48:55.825Z,98799.00
2023-01-02T15:51:40.220Z,98810.00
2023-01-02T15:54:14.901Z,98820.00
2023-01-02T15:56:45.382Z,98822.00
2023-01-02T15:59:32.150Z,98824.00
2023-01-02T16:02:02.815Z,98809.00
2023-01-02T16:04:34.691Z,98817.00
2023-01-02T16:07:25.116Z,98824.00
2023-01-02T16:09:58.728Z,98823.00
2023-01-02T16:12:28.737Z,98822.00
2023-01-02T16:15:00.394Z,98813.00
2023-01-02T16:17:31.823Z,98817.00
2023-01-02T16:20:03.127Z,98821.00
2023-01-02T16:22:36.904Z,98824.00
2023-01-02T16:25:13.233Z,98831.00
2023-01-02T16:27:51.273Z,98828.00
2023-01-02T16:30:32.757Z,98833.00
2023-01-02T16:33:04.494Z,98833.00
2023-01-02T16:35:37.161Z,98837.00
2023-01-02T16:38:08.674Z,98854.00
2023-01-02T16:41:02.939Z,98845.00
2023-01-02T16:43:41.230Z,98834.00
2023-01-02T16:46:17.160Z,98828.00
2023-01-02T16:48:47.713Z,98831.00
2023-01-02T16:51:18.790Z,98826.00
2023-01-02T16:53:48.902Z,98820.00
2023-01-02T16:56:21.615Z,98822.00
2023-01-02T16:58:51.652Z,98826.00
2023-01-02T17:01:22.725Z,98815.00
2023-01-02T17:03:52.986Z,98821.00
2023-01-02T17:06:24.484Z,98810.00
2023-01-02T17:08:54.520Z,98814.00
2023-01-02T17:11:28.056Z,98816.00
2023-01-02T17:13:58.175Z,98821.00
2023-01-02T17:16:28.534Z,98819.00
2023-01-02T17:18:59.264Z,98824.00
2023-01-02T17:21:32.791Z,98829.00
2023-01-02T17:24:03.146Z,98827.00
2023-01-02T17:26:36.722Z,98821.00
2023-01-02T17:29:06.646Z,98821.00
2023-01-02T17:31:36.653Z,98826.00
2023-01-02T17:34:06.822Z,98815.00
2023-01-02T17:36:37.404Z,98814.00
2023-01-02T17:39:07.578Z,98809.00
2023-01-02T17:41:40.191Z,98809.00
2023-01-02T17:44:10.232Z,98819.00
2023-01-02T17:49:30.319Z,98822.00
2023-01-02T17:52:00.307Z,98828.00
2023-01-02T17:54:30.317Z,98829.00
2023-01-02T17:57:02.968Z,98828.00
2023-01-02T17:59:32.964Z,98833.00
2023-01-02T18:02:03.288Z,98838.00
2023-01-02T18:04:33.442Z,98835.00
2023-01-02T18:07:04.215Z,98838.00
2023-01-02T18:09:34.120Z,98853.00
2023-01-02T18:12:06.963Z,98854.00
2023-01-02T18:14:37.130Z,98858.00
2023-01-02T18:17:15.797Z,98849.00
2023-01-02T18:19:46.644Z,98855.00
2023-01-02T18:22:18.210Z,98859.00
2023-01-02T18:24:55.155Z,98855.00
2023-01-02T18:27:29.443Z,98858.00
2023-01-02T18:30:05.154Z,98837.00
2023-01-02T18:32:36.878Z,98851.00
2023-01-02T18:38:22.135Z,98869.00
2023-01-02T18:40:53.357Z,98864.00
2023-01-02T18:43:30.808Z,98866.00
2023-01-02T18:46:02.114Z,98881.00
2023-01-02T18:48:33.333Z,98888.00
2023-01-02T18:51:04.642Z,98888.00
2023-01-02T18:53:38.909Z,98891.00
2023-01-02T18:56:16.286Z,98885.00
2023-01-02T18:58:51.681Z,98891.00
2023-01-02T19:01:27.953Z,98899.00
2023-01-02T19:04:06.122Z,98901.00
2023-01-02T19:06:44.455Z,98893.00
2023-01-02T19:09:17.707Z,98896.00
2023-01-02T19:12:03.706Z,98897.00
2023-01-02T19:14:41.408Z,98901.00
2023-01-02T19:17:21.606Z,98890.00
2023-01-02T19:19:52.822Z,235282.00
2023-01-02T19:22:24.572Z,235282.00
2023-01-02T19:24:55.732Z,235282.00
2023-01-02T19:27:29.856Z,235278.00
2023-01-02T19:30:03.090Z,98919.00
2023-01-02T19:32:34.064Z,98922.00
2023-01-02T19:35:13.108Z,98918.00
2023-01-02T19:37:44.380Z,98918.00
2023-01-02T19:40:19.474Z,98922.00
2023-01-02T19:42:50.814Z,98919.00
2023-01-02T19:45:24.822Z,98920.00
2023-01-02T19:47:55.867Z,98908.00
2023-01-02T19:50:27.687Z,98905.00
2023-01-02T19:52:57.781Z,98906.00
2023-01-02T19:55:27.828Z,98896.00
2023-01-02T19:57:57.824Z,98900.00
2023-01-02T20:00:30.439Z,98904.00
2023-01-02T20:03:00.949Z,98901.00
2023-01-02T20:05:31.373Z,98913.00
2023-01-02T20:08:02.411Z,98911.00
2023-01-02T20:10:32.419Z,98920.00
2023-01-02T20:13:02.453Z,98916.00
2023-01-02T20:15:35.098Z,98933.00
2023-01-02T20:18:08.861Z,98933.00
2023-01-02T20:20:39.176Z,98938.00
2023-01-02T20:23:09.242Z,98941.00
2023-01-02T20:25:40.099Z,98944.00
2023-01-02T20:28:10.210Z,98951.00
2023-01-02T20:30:42.791Z,98947.00
2023-01-02T20:33:14.457Z,98954.00
2023-01-02T20:35:44.464Z,98970.00
2023-01-02T20:38:14.499Z,98957.00
2023-01-02T20:40:44.476Z,98968.00
2023-01-02T20:43:14.429Z,98970.00
2023-01-02T20:45:47.135Z,98970.00
2023-01-02T20:48:17.645Z,98977.00
2023-01-02T20:50:47.718Z,98974.00
2023-01-02T20:53:17.714Z,98977.00
2023-01-02T20:55:47.741Z,98978.00
2023-01-02T20:58:17.826Z,98976.00
2023-01-02T21:00:50.670Z,98980.00
2023-01-02T21:03:21.015Z,98987.00
2023-01-02T21:05:51.029Z,98995.00
2023-01-02T21:08:21.020Z,98996.00
2023-01-02T21:10:50.903Z,99002.00
2023-01-02T21:13:20.878Z,99015.00
2023-01-02T21:15:53.509Z,99007.00
2023-01-02T21:18:24.983Z,98997.00
2023-01-02T21:20:57.182Z,99000.00
2023-01-02T21:23:29.196Z,98996.00
2023-01-02T21:25:59.886Z,98999.00
2023-01-02T21:28:30.270Z,99003.00
2023-01-02T21:31:03.177Z,98993.00
2023-01-02T21:33:33.339Z,98996.00
2023-01-02T21:36:05.187Z,99002.00
2023-01-02T21:38:35.560Z,98994.00
2023-01-02T21:41:17.810Z,99005.00
2023-01-02T21:43:48.040Z,99004.00
2023-01-02T21:46:20.716Z,99004.00
2023-01-02T21:48:50.784Z,99004.00
2023-01-02T21:51:20.913Z,99003.00
2023-01-02T21:53:50.947Z,98997.00
2023-01-02T21:56:20.933Z,98988.00
2023-01-02T21:58:50.873Z,98997.00
2023-01-02T22:01:23.636Z,98998.00
2023-01-02T22:03:57.072Z,99011.00
2023-01-02T22:06:34.058Z,99012.00
2023-01-02T22:09:04.162Z,99019.00
2023-01-02T22:11:46.571Z,99020.00
2023-01-02T22:14:16.703Z,99011.00
2023-01-02T22:16:49.341Z,99021.00
2023-01-02T22:19:19.378Z,99012.00
2023-01-02T22:21:49.452Z,99003.00
2023-01-02T22:24:19.770Z,99007.00
2023-01-02T22:26:50.853Z,99007.00
2023-01-02T22:29:24.117Z,98996.00
2023-01-02T22:32:00.348Z,99003.00
2023-01-02T22:34:31.411Z,99002.00
2023-01-02T22:37:01.547Z,99000.00
2023-01-02T22:39:31.486Z,98994.00
2023-01-02T22:42:48.726Z,98985.00
2023-01-02T22:45:05.049Z,98989.00
2023-01-02T22:47:39.905Z,98986.00
2023-01-02T22:50:12.462Z,98979.00
2023-01-02T22:52:42.782Z,98977.00
2023-01-02T22:55:18.720Z,98976.00
2023-01-02T22:57:51.451Z,98968.00
2023-01-02T23:00:24.595Z,98966.00
2023-01-02T23:02:57.279Z,98966.00
2023-01-02T23:05:27.261Z,98968.00
2023-01-02T23:07:57.314Z,98974.00
2023-01-02T23:10:27.301Z,98980.00
2023-01-02T23:12:57.522Z,98985.00
2023-01-02T23:15:27.541Z,98986.00
2023-01-02T23:18:12.662Z,99002.00
2023-01-02T23:20:42.635Z,99005.00
2023-01-02T23:23:12.646Z,98988.00
2023-01-02T23:25:44.252Z,98992.00
2023-01-02T23:28:39.299Z,99002.00
2023-01-02T23:31:04.288Z,98997.00
2023-01-02T23:33:36.964Z,99007.00
2023-01-02T23:36:07.674Z,99009.00
2023-01-02T23:38:38.584Z,98997.00
2023-01-02T23:41:08.982Z,99007.00
2023-01-02T23:43:39.194Z,99001.00
2023-01-02T23:46:09.667Z,99013.00
2023-01-02T23:48:42.346Z,99032.00
2023-01-02T23:51:12.460Z,99027.00
2023-01-02T23:53:42.501Z,99038.00
2023-01-02T23:56:20.473Z,99036.00
2023-01-02T23:58:53.164Z,99040.00
